createdAt,value
2022-12-31T00:00:00.648Z,2.30
2022-12-31T00:02:28.294Z,0.70
2022-12-31T00:04:55.641Z,1.05
2022-12-31T00:07:23.022Z,0.77
2022-12-31T00:09:50.309Z,0.50
2022-12-31T00:12:17.627Z,0.95
2022-12-31T00:14:44.876Z,0.50
2022-12-31T00:17:12.311Z,1.08
2022-12-31T00:19:39.666Z,0.40
2022-12-31T00:22:06.966Z,1.02
2022-12-31T00:24:35.810Z,0.75
2022-12-31T00:27:03.182Z,0.55
2022-12-31T00:29:30.481Z,0.82
2022-12-31T00:31:57.808Z,0.60
2022-12-31T00:34:25.134Z,0.70
2022-12-31T00:36:52.995Z,1.80
2022-12-31T00:39:20.281Z,0.50
2022-12-31T00:41:47.626Z,0.68
2022-12-31T00:44:14.922Z,0.60
2022-12-31T00:49:09.281Z,1.27
2022-12-31T00:51:36.535Z,1.10
2022-12-31T00:54:04.034Z,0.80
2022-12-31T00:56:32.585Z,0.50
2022-12-31T00:59:00.393Z,0.57
2022-12-31T01:01:34.016Z,3.05
2022-12-31T01:04:08.236Z,1.08
2022-12-31T01:06:35.641Z,0.40
2022-12-31T01:09:03.525Z,0.50
2022-12-31T01:11:30.911Z,0.65
2022-12-31T01:14:10.890Z,0.57
2022-12-31T01:16:45.434Z,0.40
2022-12-31T01:19:15.995Z,0.40
2022-12-31T01:21:44.617Z,0.60
2022-12-31T01:24:12.549Z,0.40
2022-12-31T01:26:40.877Z,1.27
2022-12-31T01:29:10.109Z,0.80
2022-12-31T01:31:38.633Z,0.40
2022-12-31T01:41:21.204Z,0.40
2022-12-31T01:43:56.491Z,0.73
2022-12-31T01:46:43.963Z,0.30
2022-12-31T01:49:13.333Z,0.40
2022-12-31T01:51:42.033Z,0.85
2022-12-31T01:54:12.368Z,0.30
2022-12-31T01:56:41.408Z,0.40
2022-12-31T02:04:15.691Z,0.30
2022-12-31T02:06:48.016Z,0.40
2022-12-31T02:09:15.889Z,0.40
2022-12-31T02:11:43.442Z,0.40
2022-12-31T02:14:20.063Z,0.40
2022-12-31T02:16:59.558Z,0.43
2022-12-31T02:19:41.451Z,0.30
2022-12-31T02:22:32.067Z,2.75
2022-12-31T02:25:30.234Z,1.55
2022-12-31T02:28:37.783Z,0.43
2022-12-31T02:31:29.339Z,1.10
2022-12-31T02:34:02.457Z,0.65
2022-12-31T02:36:36.141Z,0.40
2022-12-31T02:39:06.044Z,0.50
2022-12-31T02:41:51.570Z,0.30
2022-12-31T02:44:35.897Z,0.55
2022-12-31T02:47:09.203Z,0.30
2022-12-31T02:50:17.734Z,0.57
2022-12-31T02:53:12.009Z,0.45
2022-12-31T02:55:52.669Z,0.45
2022-12-31T02:58:56.697Z,1.10
2022-12-31T03:01:50.889Z,0.95
2022-12-31T03:04:35.825Z,0.40
2022-12-31T03:07:05.085Z,0.40
2022-12-31T03:09:32.924Z,0.30
2022-12-31T03:12:20.302Z,2.17
2022-12-31T03:14:47.686Z,0.70
2022-12-31T03:17:15.333Z,0.40
2022-12-31T03:20:01.686Z,0.40
2022-12-31T03:22:29.425Z,0.50
2022-12-31T03:25:25.152Z,0.40
2022-12-31T03:27:53.929Z,0.60
2022-12-31T03:30:22.844Z,1.42
2022-12-31T03:32:51.434Z,0.45
2022-12-31T03:35:21.032Z,0.82
2022-12-31T03:37:49.507Z,0.50
2022-12-31T03:40:18.760Z,0.50
2022-12-31T03:42:46.065Z,0.65
2022-12-31T03:45:13.952Z,2.03
2022-12-31T03:47:41.454Z,0.50
2022-12-31T03:50:11.552Z,2.45
2022-12-31T03:52:39.501Z,1.13
2022-12-31T03:55:08.155Z,0.50
2022-12-31T03:57:35.868Z,1.27
2022-12-31T04:00:08.439Z,0.70
2022-12-31T04:02:36.161Z,0.40
2022-12-31T04:05:03.636Z,0.50
2022-12-31T04:07:30.867Z,2.40
2022-12-31T04:09:58.239Z,0.30
2022-12-31T04:12:25.583Z,0.98
2022-12-31T04:14:52.875Z,0.80
2022-12-31T04:17:20.122Z,0.75
2022-12-31T04:19:47.541Z,1.20
2022-12-31T04:22:15.218Z,1.65
2022-12-31T04:24:43.264Z,0.80
2022-12-31T04:27:12.022Z,2.05
2022-12-31T04:29:39.372Z,0.93
2022-12-31T04:32:07.863Z,1.88
2022-12-31T04:34:35.526Z,0.93
2022-12-31T04:37:03.345Z,2.13
2022-12-31T04:39:30.628Z,0.68
2022-12-31T04:41:57.861Z,1.05
2022-12-31T04:44:25.188Z,1.13
2022-12-31T04:46:53.586Z,0.40
2022-12-31T04:49:21.352Z,0.88
2022-12-31T04:51:48.580Z,1.95
2022-12-31T04:54:16.008Z,2.33
2022-12-31T04:56:43.449Z,0.95
2022-12-31T04:59:11.725Z,1.00
2022-12-31T05:01:39.538Z,1.05
2022-12-31T05:04:06.956Z,2.50
2022-12-31T05:06:34.583Z,1.45
2022-12-31T05:09:01.985Z,1.55
2022-12-31T05:11:29.245Z,1.40
2022-12-31T05:13:56.478Z,1.20
2022-12-31T05:16:23.859Z,0.60
2022-12-31T05:18:51.276Z,2.13
2022-12-31T05:21:21.248Z,1.80
2022-12-31T05:23:49.199Z,0.95
2022-12-31T05:26:17.294Z,2.30
2022-12-31T05:28:45.002Z,0.88
2022-12-31T05:31:13.258Z,1.75
2022-12-31T05:33:40.601Z,3.03
2022-12-31T05:36:08.095Z,2.05
2022-12-31T05:38:36.644Z,1.55
2022-12-31T05:41:06.413Z,1.40
2022-12-31T05:43:34.232Z,1.13
2022-12-31T05:46:03.329Z,1.40
2022-12-31T05:48:31.818Z,1.50
2022-12-31T05:50:59.331Z,2.28
2022-12-31T05:53:26.632Z,2.45
2022-12-31T05:55:53.944Z,0.57
2022-12-31T05:58:21.210Z,2.53
2022-12-31T06:00:48.438Z,1.15
2022-12-31T06:03:15.780Z,1.58
2022-12-31T06:05:43.451Z,2.40
2022-12-31T06:08:12.261Z,3.10
2022-12-31T06:10:40.418Z,2.00
2022-12-31T06:13:08.003Z,1.63
2022-12-31T06:15:40.527Z,1.98
2022-12-31T06:18:07.893Z,0.63
2022-12-31T06:20:38.248Z,0.80
2022-12-31T06:23:05.774Z,3.28
2022-12-31T06:25:34.932Z,1.25
2022-12-31T06:28:02.297Z,1.30
2022-12-31T06:30:29.557Z,2.40
2022-12-31T06:32:56.905Z,5.20
2022-12-31T06:35:24.246Z,0.95
2022-12-31T06:37:52.215Z,1.88
2022-12-31T06:40:19.545Z,1.88
2022-12-31T06:42:47.035Z,1.33
2022-12-31T06:45:14.396Z,2.00
2022-12-31T06:47:41.756Z,1.45
2022-12-31T06:50:09.418Z,5.13
2022-12-31T06:52:36.824Z,4.00
2022-12-31T06:55:05.079Z,1.33
2022-12-31T06:57:32.605Z,3.28
2022-12-31T07:00:00.304Z,0.75
2022-12-31T07:02:38.783Z,1.08
2022-12-31T07:05:34.273Z,1.05
2022-12-31T07:10:37.545Z,3.75
2022-12-31T07:13:28.206Z,2.97
2022-12-31T07:16:13.761Z,1.52
2022-12-31T07:18:53.017Z,3.70
2022-12-31T07:21:33.293Z,1.10
2022-12-31T07:24:01.160Z,2.33
2022-12-31T07:26:37.001Z,4.97
2022-12-31T07:29:16.217Z,1.73
2022-12-31T07:32:05.379Z,3.63
2022-12-31T07:34:51.470Z,2.50
2022-12-31T07:37:41.507Z,1.98
2022-12-31T07:40:20.215Z,0.93
2022-12-31T07:43:13.617Z,2.33
2022-12-31T07:45:58.258Z,2.92
2022-12-31T07:48:27.949Z,0.93
2022-12-31T07:50:56.981Z,2.90
2022-12-31T07:53:25.745Z,1.55
2022-12-31T07:55:59.818Z,3.17
2022-12-31T07:58:45.384Z,1.00
2022-12-31T08:01:16.394Z,1.95
2022-12-31T08:04:16.217Z,1.92
2022-12-31T08:07:04.661Z,2.78
2022-12-31T08:10:14.036Z,2.15
2022-12-31T08:12:46.776Z,2.17
2022-12-31T08:15:16.220Z,1.13
2022-12-31T08:17:44.240Z,1.60
2022-12-31T08:20:16.335Z,1.20
2022-12-31T08:23:20.898Z,2.72
2022-12-31T08:25:51.214Z,1.20
2022-12-31T08:28:23.514Z,1.13
2022-12-31T08:30:56.260Z,3.60
2022-12-31T08:33:42.490Z,2.25
2022-12-31T08:36:19.502Z,2.05
2022-12-31T08:39:08.099Z,4.10
2022-12-31T08:41:55.093Z,1.95
2022-12-31T08:44:51.137Z,3.25
2022-12-31T08:47:41.757Z,2.17
2022-12-31T08:50:15.775Z,10.52
2022-12-31T08:52:43.464Z,2.20
2022-12-31T08:55:16.475Z,4.47
2022-12-31T08:58:17.339Z,1.42
2022-12-31T09:00:45.658Z,3.72
2022-12-31T09:03:27.214Z,2.10
2022-12-31T09:06:06.663Z,3.58
2022-12-31T09:09:06.413Z,2.63
2022-12-31T09:12:00.321Z,1.92
2022-12-31T09:14:39.532Z,3.35
2022-12-31T09:17:45.048Z,1.35
2022-12-31T09:20:22.542Z,1.48
2022-12-31T09:22:50.939Z,3.88
2022-12-31T09:25:21.359Z,2.45
2022-12-31T09:28:06.785Z,2.45
2022-12-31T09:30:50.775Z,3.90
2022-12-31T09:33:20.753Z,1.98
2022-12-31T09:35:57.658Z,2.58
2022-12-31T09:38:35.031Z,2.10
2022-12-31T09:41:14.429Z,2.20
2022-12-31T09:44:03.208Z,3.25
2022-12-31T09:46:49.292Z,1.35
2022-12-31T09:49:25.720Z,2.03
2022-12-31T09:52:18.946Z,1.90
2022-12-31T09:55:23.941Z,1.50
2022-12-31T09:58:23.579Z,2.58
2022-12-31T10:00:57.963Z,1.35
2022-12-31T10:06:26.936Z,2.53
2022-12-31T10:09:02.869Z,2.17
2022-12-31T10:11:48.689Z,2.33
2022-12-31T10:14:35.791Z,2.55
2022-12-31T10:17:27.277Z,6.53
2022-12-31T10:20:16.325Z,1.80
2022-12-31T10:23:02.369Z,2.00
2022-12-31T10:25:51.580Z,2.47
2022-12-31T10:28:50.132Z,4.68
2022-12-31T10:31:36.346Z,2.42
2022-12-31T10:34:14.585Z,5.30
2022-12-31T10:37:05.731Z,3.13
2022-12-31T10:40:04.121Z,3.08
2022-12-31T10:42:55.946Z,3.03
2022-12-31T10:45:54.643Z,7.13
2022-12-31T10:48:46.559Z,1.73
2022-12-31T10:51:53.849Z,3.38
2022-12-31T10:54:26.989Z,3.47
2022-12-31T10:57:31.381Z,2.05
2022-12-31T11:00:18.738Z,3.80
2022-12-31T11:03:10.303Z,2.80
2022-12-31T11:06:17.484Z,2.55
2022-12-31T11:09:01.193Z,2.22
2022-12-31T11:11:34.232Z,2.08
2022-12-31T11:14:30.566Z,7.07
2022-12-31T11:17:36.032Z,2.03
2022-12-31T11:20:30.577Z,2.63
2022-12-31T11:23:19.595Z,4.83
2022-12-31T11:26:18.282Z,3.92
2022-12-31T11:28:54.569Z,2.67
2022-12-31T11:31:33.867Z,2.83
2022-12-31T11:34:25.491Z,2.05
2022-12-31T11:37:01.537Z,3.03
2022-12-31T11:40:10.274Z,2.85
2022-12-31T11:42:56.467Z,2.67
2022-12-31T11:45:38.699Z,2.45
2022-12-31T11:48:31.627Z,2.05
2022-12-31T11:51:37.257Z,5.35
2022-12-31T11:54:24.817Z,4.47
2022-12-31T11:57:05.338Z,1.67
2022-12-31T11:59:32.648Z,5.03
2022-12-31T12:02:01.867Z,2.45
2022-12-31T12:04:30.067Z,2.13
2022-12-31T12:06:57.820Z,7.32
2022-12-31T12:09:34.357Z,2.97
2022-12-31T12:12:04.223Z,5.68
2022-12-31T12:14:44.459Z,3.33
2022-12-31T12:17:32.271Z,4.05
2022-12-31T12:20:17.108Z,2.05
2022-12-31T12:22:53.112Z,4.38
2022-12-31T12:25:23.984Z,4.38
2022-12-31T12:27:51.600Z,3.92
2022-12-31T12:30:24.403Z,3.75
2022-12-31T12:33:04.661Z,4.22
2022-12-31T12:35:35.674Z,3.05
2022-12-31T12:38:06.370Z,3.38
2022-12-31T12:40:34.737Z,4.18
2022-12-31T12:43:03.183Z,3.33
2022-12-31T12:45:51.363Z,3.00
2022-12-31T12:48:30.179Z,5.82
2022-12-31T12:50:58.201Z,2.00
2022-12-31T12:53:44.741Z,2.80
2022-12-31T12:56:18.712Z,6.10
2022-12-31T12:59:27.622Z,2.42
2022-12-31T13:02:19.643Z,3.72
2022-12-31T13:05:27.922Z,2.05
2022-12-31T13:08:10.527Z,1.73
2022-12-31T13:11:03.252Z,3.15
2022-12-31T13:13:54.685Z,4.60
2022-12-31T13:16:52.318Z,2.55
2022-12-31T13:19:30.713Z,2.85
2022-12-31T13:22:05.301Z,3.88
2022-12-31T13:25:03.434Z,6.50
2022-12-31T13:27:42.384Z,5.53
2022-12-31T13:30:25.346Z,3.20
2022-12-31T13:33:14.153Z,4.93
2022-12-31T13:35:49.069Z,5.28
2022-12-31T13:38:34.855Z,2.35
2022-12-31T13:41:09.316Z,3.38
2022-12-31T13:44:04.629Z,6.43
2022-12-31T13:49:21.035Z,4.07
2022-12-31T13:51:51.184Z,2.13
2022-12-31T13:54:58.738Z,1.73
2022-12-31T13:57:32.006Z,4.80
2022-12-31T14:00:04.097Z,6.07
2022-12-31T14:02:52.797Z,3.50
2022-12-31T14:05:36.965Z,3.95
2022-12-31T14:08:06.499Z,3.90
2022-12-31T14:10:41.820Z,4.43
2022-12-31T14:13:46.442Z,4.63
2022-12-31T14:16:43.545Z,6.88
2022-12-31T14:19:27.402Z,7.80
2022-12-31T14:22:10.549Z,3.58
2022-12-31T14:24:51.037Z,5.10
2022-12-31T14:27:36.708Z,5.65
2022-12-31T14:30:15.241Z,4.70
2022-12-31T14:33:16.121Z,6.18
2022-12-31T14:36:14.128Z,4.97
2022-12-31T14:39:02.892Z,4.82
2022-12-31T14:41:57.920Z,2.58
2022-12-31T14:44:34.059Z,5.43
2022-12-31T14:47:13.143Z,5.18
2022-12-31T14:50:15.132Z,5.90
2022-12-31T14:52:52.836Z,7.18
2022-12-31T14:55:30.158Z,4.25
2022-12-31T14:58:27.032Z,7.50
2022-12-31T15:00:55.725Z,7.22
2022-12-31T15:03:41.398Z,3.53
2022-12-31T15:06:53.133Z,4.25
2022-12-31T15:09:57.201Z,5.03
2022-12-31T15:13:02.369Z,1.98
2022-12-31T15:16:00.727Z,2.97
2022-12-31T15:18:50.832Z,2.80
2022-12-31T15:21:47.194Z,2.17
2022-12-31T15:24:23.785Z,5.00
2022-12-31T15:27:03.886Z,4.03
2022-12-31T15:29:34.238Z,4.80
2022-12-31T15:32:04.197Z,3.15
2022-12-31T15:34:33.784Z,2.63
2022-12-31T15:37:03.725Z,6.85
2022-12-31T15:39:30.959Z,2.97
2022-12-31T15:45:02.645Z,4.57
2022-12-31T15:47:36.365Z,5.15
2022-12-31T15:50:15.202Z,4.72
2022-12-31T15:52:48.014Z,3.85
2022-12-31T15:55:22.463Z,2.80
2022-12-31T15:57:50.785Z,2.28
2022-12-31T16:00:21.675Z,2.83
2022-12-31T16:02:52.520Z,3.40
2022-12-31T16:05:23.626Z,4.72
2022-12-31T16:07:59.037Z,3.75
2022-12-31T16:10:32.210Z,3.00
2022-12-31T16:13:00.592Z,5.82
2022-12-31T16:15:30.892Z,5.68
2022-12-31T16:18:05.061Z,3.40
2022-12-31T16:20:34.290Z,5.72
2022-12-31T16:23:03.503Z,4.43
2022-12-31T16:25:33.318Z,2.55
2022-12-31T16:28:02.890Z,2.40
2022-12-31T16:30:37.381Z,2.03
2022-12-31T16:33:10.972Z,3.28
2022-12-31T16:35:38.282Z,2.33
2022-12-31T16:38:15.669Z,1.88
2022-12-31T16:41:04.320Z,4.28
2022-12-31T16:43:38.784Z,3.17
2022-12-31T16:46:17.670Z,3.40
2022-12-31T16:48:56.941Z,2.90
2022-12-31T16:51:37.281Z,2.72
2022-12-31T16:54:04.890Z,2.90
2022-12-31T16:56:36.876Z,2.92
2022-12-31T16:59:14.512Z,3.97
2022-12-31T17:01:42.567Z,2.95
2022-12-31T17:04:12.377Z,3.78
2022-12-31T17:06:39.653Z,2.53
2022-12-31T17:09:12.783Z,3.22
2022-12-31T17:11:45.401Z,4.60
2022-12-31T17:14:18.094Z,3.72
2022-12-31T17:17:16.726Z,4.75
2022-12-31T17:19:47.522Z,4.13
2022-12-31T17:22:35.868Z,3.15
2022-12-31T17:25:05.956Z,2.13
2022-12-31T17:27:34.328Z,3.58
2022-12-31T17:30:40.295Z,3.40
2022-12-31T17:35:36.982Z,5.13
2022-12-31T17:38:22.346Z,4.80
2022-12-31T17:40:52.866Z,3.70
2022-12-31T17:43:22.739Z,6.50
2022-12-31T17:45:54.729Z,5.88
2022-12-31T17:48:24.972Z,3.15
2022-12-31T17:50:57.766Z,8.57
2022-12-31T17:53:25.625Z,9.60
2022-12-31T17:55:55.644Z,6.22
2022-12-31T17:58:29.791Z,4.82
2022-12-31T18:00:58.910Z,4.45
2022-12-31T18:03:26.412Z,5.55
2022-12-31T18:05:53.753Z,4.50
2022-12-31T18:08:21.021Z,14.32
2022-12-31T18:10:48.684Z,4.93
2022-12-31T18:13:26.847Z,3.30
2022-12-31T18:15:55.071Z,5.25
2022-12-31T18:18:35.787Z,7.18
2022-12-31T18:21:06.858Z,6.07
2022-12-31T18:23:46.244Z,5.13
2022-12-31T18:26:15.988Z,4.97
2022-12-31T18:28:43.437Z,5.15
2022-12-31T18:31:16.944Z,4.07
2022-12-31T18:33:44.608Z,5.35
2022-12-31T18:36:14.262Z,7.03
2022-12-31T18:38:41.918Z,4.93
2022-12-31T18:41:28.769Z,5.18
2022-12-31T18:43:56.484Z,10.32
2022-12-31T18:46:25.148Z,6.35
2022-12-31T18:48:52.458Z,5.68
2022-12-31T18:51:29.353Z,4.35
2022-12-31T18:53:59.429Z,4.07
2022-12-31T18:56:27.102Z,6.18
2022-12-31T18:58:54.387Z,4.55
2022-12-31T19:01:24.517Z,8.80
2022-12-31T19:03:51.975Z,3.10
2022-12-31T19:06:19.334Z,5.20
2022-12-31T19:08:46.708Z,5.25
2022-12-31T19:11:15.181Z,4.90
2022-12-31T19:13:42.570Z,8.68
2022-12-31T19:16:10.464Z,7.82
2022-12-31T19:18:37.874Z,8.45
2022-12-31T19:21:05.285Z,10.45
2022-12-31T19:23:32.562Z,3.92
2022-12-31T19:25:59.816Z,5.15
2022-12-31T19:28:28.352Z,4.38
2022-12-31T19:30:55.707Z,6.93
2022-12-31T19:33:23.116Z,7.60
2022-12-31T19:35:50.487Z,3.67
2022-12-31T19:38:22.104Z,4.75
2022-12-31T19:40:50.592Z,5.47
2022-12-31T19:43:20.581Z,2.20
2022-12-31T19:45:49.215Z,7.40
2022-12-31T19:48:30.494Z,4.85
2022-12-31T19:51:00.044Z,14.50
2022-12-31T19:53:28.049Z,6.78
2022-12-31T19:55:55.383Z,8.05
2022-12-31T19:58:28.114Z,6.50
2022-12-31T20:01:02.302Z,5.50
2022-12-31T20:03:32.387Z,4.18
2022-12-31T20:06:06.163Z,4.25
2022-12-31T20:08:35.015Z,4.13
2022-12-31T20:11:17.354Z,8.50
2022-12-31T20:13:45.762Z,9.52
2022-12-31T20:16:15.762Z,5.57
2022-12-31T20:18:44.436Z,6.15
2022-12-31T20:21:23.479Z,4.40
2022-12-31T20:23:52.407Z,5.63
2022-12-31T20:26:21.142Z,5.47
2022-12-31T20:28:48.731Z,4.28
2022-12-31T20:31:18.448Z,7.00
2022-12-31T20:33:46.432Z,3.53
2022-12-31T20:36:15.957Z,4.97
2022-12-31T20:38:43.823Z,6.35
2022-12-31T20:41:13.678Z,7.38
2022-12-31T20:43:41.075Z,6.72
2022-12-31T20:46:15.652Z,6.40
2022-12-31T20:48:44.727Z,7.03
2022-12-31T20:51:13.553Z,6.47
2022-12-31T20:53:52.361Z,7.22
2022-12-31T20:56:19.720Z,4.78
2022-12-31T20:58:47.666Z,4.15
2022-12-31T21:01:15.648Z,4.38
2022-12-31T21:06:33.492Z,5.72
2022-12-31T21:09:03.621Z,6.05
2022-12-31T21:11:49.697Z,4.72
2022-12-31T21:14:17.103Z,3.95
2022-12-31T21:16:44.389Z,8.77
2022-12-31T21:19:11.739Z,7.68
2022-12-31T21:21:39.037Z,8.10
2022-12-31T21:24:06.581Z,5.18
2022-12-31T21:26:34.448Z,4.90
2022-12-31T21:29:01.754Z,6.55
2022-12-31T21:31:29.120Z,3.15
2022-12-31T21:33:56.415Z,12.82
2022-12-31T21:36:23.751Z,7.30
2022-12-31T21:38:51.055Z,6.03
2022-12-31T21:41:36.880Z,8.75
2022-12-31T21:44:04.230Z,7.07
2022-12-31T21:46:31.581Z,6.35
2022-12-31T21:49:00.365Z,6.05
2022-12-31T21:51:28.440Z,7.75
2022-12-31T21:53:56.303Z,5.22
2022-12-31T21:56:24.175Z,5.25
2022-12-31T21:59:17.216Z,4.78
2022-12-31T22:02:03.158Z,10.93
2022-12-31T22:07:17.838Z,8.32
2022-12-31T22:09:45.089Z,6.47
2022-12-31T22:12:12.360Z,6.50
2022-12-31T22:14:39.652Z,5.32
2022-12-31T22:17:26.964Z,3.97
2022-12-31T22:20:25.425Z,5.32
2022-12-31T22:22:41.537Z,5.45
2022-12-31T22:25:09.308Z,4.05
2022-12-31T22:27:36.638Z,4.13
2022-12-31T22:30:04.835Z,5.38
2022-12-31T22:32:32.217Z,7.55
2022-12-31T22:34:59.515Z,6.53
2022-12-31T22:37:55.827Z,7.47
2022-12-31T22:40:14.282Z,3.92
2022-12-31T22:42:41.537Z,10.27
2022-12-31T22:45:10.123Z,8.75
2022-12-31T22:47:37.394Z,9.10
2022-12-31T22:50:05.064Z,6.55
2022-12-31T22:52:32.354Z,3.65
2022-12-31T22:54:59.673Z,9.48
2022-12-31T22:57:26.960Z,7.25
2022-12-31T22:59:54.173Z,13.48
2022-12-31T23:02:21.500Z,44.97
2022-12-31T23:04:48.856Z,126.97
2022-12-31T23:07:16.307Z,31.13
2022-12-31T23:10:01.898Z,21.38
2022-12-31T23:12:29.204Z,22.60
2022-12-31T23:15:14.984Z,43.38
2022-12-31T23:18:00.928Z,33.63
2022-12-31T23:20:47.059Z,21.95
2022-12-31T23:23:16.153Z,47.60
2022-12-31T23:25:48.970Z,23.20
2022-12-31T23:28:25.249Z,19.35
2022-12-31T23:30:53.078Z,16.50
2022-12-31T23:33:23.343Z,13.55
2022-12-31T23:35:50.888Z,18.17
2022-12-31T23:38:18.976Z,17.35
2022-12-31T23:40:46.429Z,16.60
2022-12-31T23:43:21.029Z,11.00
2022-12-31T23:45:50.260Z,12.07
2022-12-31T23:48:17.561Z,7.95
2022-12-31T23:50:50.900Z,8.48
2022-12-31T23:53:20.201Z,7.10
2022-12-31T23:55:47.446Z,9.52
2022-12-31T23:58:15.578Z,9.63
